Time;durP1;ratioP1;P1;durP2;ratioP2;P2;SDS_P1;SDS_P2;PMS_P1;PMS_P2;Temp;Humidity;BMP_temperature;BMP_pressure;BME280_temperature;BME280_humidity;BME280_pressure;Samples;Min_cycle;Max_cycle;Signal;HPM_P1;HPM_P2
2023/01/16 00:01:12;;;;;;;5.03;3.30;;;;;;;;;;5030682;28;20041;-79
2023/01/16 00:03:38;;;;;;;5.28;3.65;;;;;;;;;;5038273;28;20574;-79
2023/01/16 00:06:05;;;;;;;4.78;3.67;;;;;;;;;;5038909;28;20546;-79
2023/01/16 00:08:31;;;;;;;5.68;3.88;;;;;;;;;;5038706;28;20064;-79
2023/01/16 00:10:57;;;;;;;6.45;3.75;;;;;;;;;;5039379;28;20033;-79
2023/01/16 00:13:23;;;;;;;6.40;4.30;;;;;;;;;;5033281;28;20030;-79
2023/01/16 00:16:00;;;;;;;6.57;4.00;;;;;;;;;;5019091;28;20374;-79
2023/01/16 00:18:29;;;;;;;6.22;4.53;;;;;;;;;;5019403;28;20068;-79
2023/01/16 00:20:55;;;;;;;5.50;3.85;;;;;;;;;;5027203;28;20081;-79
2023/01/16 00:23:21;;;;;;;7.63;4.47;;;;;;;;;;5038910;28;20119;-79
2023/01/16 00:25:47;;;;;;;7.10;4.35;;;;;;;;;;5038708;28;20384;-79
2023/01/16 00:28:14;;;;;;;6.78;4.47;;;;;;;;;;5038502;28;20025;-79
2023/01/16 00:30:40;;;;;;;7.05;4.25;;;;;;;;;;5030368;28;20381;-79
2023/01/16 00:33:06;;;;;;;6.15;3.78;;;;;;;;;;5021594;28;20439;-80
2023/01/16 00:35:33;;;;;;;7.65;4.38;;;;;;;;;;5038329;28;20022;-80
2023/01/16 00:37:59;;;;;;;6.28;4.38;;;;;;;;;;5038231;28;20021;-80
2023/01/16 00:40:25;;;;;;;6.63;4.38;;;;;;;;;;5032754;28;20030;-80
2023/01/16 00:42:52;;;;;;;6.55;4.35;;;;;;;;;;5000116;28;20068;-80
2023/01/16 00:45:18;;;;;;;6.20;4.43;;;;;;;;;;5018432;28;20026;-80
2023/01/16 00:47:44;;;;;;;5.32;4.28;;;;;;;;;;5018252;28;20487;-80
2023/01/16 00:50:10;;;;;;;5.40;3.70;;;;;;;;;;5018161;28;20018;-80
2023/01/16 00:52:36;;;;;;;6.65;4.13;;;;;;;;;;5017830;28;20026;-80
2023/01/16 00:55:02;;;;;;;7.38;4.38;;;;;;;;;;5018589;28;20104;-80
2023/01/16 00:57:28;;;;;;;8.95;4.15;;;;;;;;;;5032059;28;20567;-79
2023/01/16 01:00:06;;;;;;;8.15;4.38;;;;;;;;;;5015475;28;20061;-80
2023/01/16 01:02:33;;;;;;;7.05;4.43;;;;;;;;;;5016417;28;20026;-80
2023/01/16 01:04:59;;;;;;;8.13;4.80;;;;;;;;;;5016358;28;20385;-79
2023/01/16 01:07:25;;;;;;;7.45;4.35;;;;;;;;;;5026980;28;20026;-79
2023/01/16 01:09:51;;;;;;;8.02;4.95;;;;;;;;;;5036401;28;20500;-79
2023/01/16 01:12:17;;;;;;;10.35;5.05;;;;;;;;;;5036139;28;20029;-79
2023/01/16 01:14:43;;;;;;;7.00;4.28;;;;;;;;;;5036060;28;20021;-79
2023/01/16 01:17:09;;;;;;;7.57;4.85;;;;;;;;;;5035994;28;20473;-79
2023/01/16 01:19:35;;;;;;;10.90;5.13;;;;;;;;;;5037036;28;20358;-80
2023/01/16 01:22:01;;;;;;;9.90;5.32;;;;;;;;;;5022206;28;20477;-80
2023/01/16 01:24:27;;;;;;;8.25;4.60;;;;;;;;;;5017138;28;20053;-80
2023/01/16 01:26:53;;;;;;;7.70;5.15;;;;;;;;;;5016590;28;20033;-80
2023/01/16 01:29:19;;;;;;;7.75;5.47;;;;;;;;;;5016436;28;20057;-80
2023/01/16 01:31:45;;;;;;;8.40;5.57;;;;;;;;;;5034891;28;20028;-80
2023/01/16 01:34:11;;;;;;;8.23;5.45;;;;;;;;;;5036151;28;20081;-80
2023/01/16 01:36:37;;;;;;;9.05;5.28;;;;;;;;;;5037882;28;20029;-80
2023/01/16 01:39:03;;;;;;;9.40;5.38;;;;;;;;;;5037714;28;20029;-80
2023/01/16 01:41:29;;;;;;;9.40;5.28;;;;;;;;;;5019551;28;20025;-80
2023/01/16 01:44:00;;;;;;;9.13;5.72;;;;;;;;;;5037488;28;20036;-80
2023/01/16 01:46:26;;;;;;;8.70;5.35;;;;;;;;;;5037885;28;20034;-80
2023/01/16 01:48:58;;;;;;;8.88;5.47;;;;;;;;;;5037285;28;20025;-80
2023/01/16 01:51:25;;;;;;;7.07;4.97;;;;;;;;;;5038044;28;20546;-80
2023/01/16 01:54:04;;;;;;;7.82;5.57;;;;;;;;;;5037989;28;20033;-79
2023/01/16 01:56:37;;;;;;;8.43;5.97;;;;;;;;;;5037594;28;20101;-79
2023/01/16 01:59:07;;;;;;;11.38;6.10;;;;;;;;;;5037345;28;20515;-79
2023/01/16 02:01:33;;;;;;;8.45;5.18;;;;;;;;;;5036922;28;20053;-79
2023/01/16 02:04:05;;;;;;;10.30;6.05;;;;;;;;;;5037142;28;20071;-79
2023/01/16 02:06:35;;;;;;;10.60;5.50;;;;;;;;;;5037073;28;20033;-79
2023/01/16 02:09:01;;;;;;;9.55;5.32;;;;;;;;;;5037680;28;20060;-79
2023/01/16 02:11:32;;;;;;;8.43;5.05;;;;;;;;;;5037247;28;20392;-79
2023/01/16 02:13:58;;;;;;;;;;;;;;;;;;5037725;28;20026;-79
2023/01/16 02:19:16;;;;;;;8.55;5.03;;;;;;;;;;5037227;28;20514;-79
2023/01/16 02:22:00;;;;;;;9.38;5.45;;;;;;;;;;5031058;28;20024;-79
2023/01/16 02:24:45;;;;;;;9.82;5.05;;;;;;;;;;5017802;28;20037;-79
2023/01/16 02:27:31;;;;;;;9.63;5.60;;;;;;;;;;5035555;28;20031;-79
2023/01/16 02:30:24;;;;;;;7.05;4.78;;;;;;;;;;5036093;28;20103;-79
2023/01/16 02:33:10;;;;;;;8.45;4.72;;;;;;;;;;5036008;28;20036;-79
2023/01/16 02:35:48;;;;;;;7.32;4.97;;;;;;;;;;5035818;28;20392;-79
2023/01/16 02:38:21;;;;;;;10.82;5.13;;;;;;;;;;5035942;28;20113;-79
2023/01/16 02:41:03;;;;;;;10.55;5.50;;;;;;;;;;5036103;28;20087;-80
2023/01/16 02:43:28;;;;;;;8.70;4.95;;;;;;;;;;5035771;28;20380;-80
2023/01/16 02:45:58;;;;;;;7.72;5.13;;;;;;;;;;5039828;28;20473;-79
2023/01/16 02:48:38;;;;;;;7.63;4.20;;;;;;;;;;5039810;28;20031;-79
2023/01/16 02:51:05;;;;;;;6.78;4.38;;;;;;;;;;5039877;28;20369;-79
2023/01/16 02:53:46;;;;;;;11.00;5.07;;;;;;;;;;5039728;28;20029;-79
2023/01/16 02:56:16;;;;;;;7.75;5.05;;;;;;;;;;5039944;28;20029;-79
2023/01/16 02:58:44;;;;;;;10.13;5.20;;;;;;;;;;5040068;28;20036;-79
2023/01/16 03:01:11;;;;;;;6.78;4.80;;;;;;;;;;5039601;28;20104;-79
2023/01/16 03:03:40;;;;;;;10.02;5.18;;;;;;;;;;5021421;28;20048;-79
2023/01/16 03:06:12;;;;;;;8.63;5.13;;;;;;;;;;5039775;28;20025;-79
2023/01/16 03:08:44;;;;;;;7.93;5.53;;;;;;;;;;5039949;28;20128;-79
2023/01/16 03:11:22;;;;;;;8.70;5.75;;;;;;;;;;5039623;28;20030;-79
2023/01/16 03:13:51;;;;;;;9.07;5.53;;;;;;;;;;5025804;28;20037;-79
2023/01/16 03:16:29;;;;;;;10.25;6.07;;;;;;;;;;5020774;28;20022;-79
2023/01/16 03:18:55;;;;;;;10.75;6.85;;;;;;;;;;5037295;28;20124;-79
2023/01/16 03:21:30;;;;;;;11.40;6.50;;;;;;;;;;5040050;28;20492;-79
2023/01/16 03:24:02;;;;;;;9.27;6.38;;;;;;;;;;5043499;28;20035;-79
2023/01/16 03:26:38;;;;;;;10.43;7.40;;;;;;;;;;5044367;28;20033;-80
2023/01/16 03:29:04;;;;;;;13.32;7.75;;;;;;;;;;5042032;28;20025;-80
2023/01/16 03:31:36;;;;;;;15.07;7.38;;;;;;;;;;5047208;28;20070;-80
2023/01/16 03:34:08;;;;;;;10.70;7.10;;;;;;;;;;5045498;28;20464;-80
2023/01/16 03:36:38;;;;;;;12.63;8.27;;;;;;;;;;5036062;28;20017;-80
2023/01/16 03:39:07;;;;;;;16.75;8.15;;;;;;;;;;5036216;28;20040;-80
2023/01/16 03:41:34;;;;;;;12.68;7.82;;;;;;;;;;5043903;28;20029;-80
2023/01/16 03:44:03;;;;;;;12.50;7.63;;;;;;;;;;5043711;28;20037;-80
2023/01/16 03:46:31;;;;;;;12.05;7.32;;;;;;;;;;5035369;28;20527;-80
2023/01/16 03:48:57;;;;;;;14.90;7.00;;;;;;;;;;5043691;28;20025;-80
2023/01/16 03:51:25;;;;;;;12.50;7.05;;;;;;;;;;5034862;28;20033;-80
2023/01/16 03:54:15;;;;;;;14.60;7.40;;;;;;;;;;5031393;28;20388;-80
2023/01/16 03:56:42;;;;;;;13.15;6.82;;;;;;;;;;5020787;28;20121;-80
2023/01/16 03:59:08;;;;;;;16.55;7.15;;;;;;;;;;5022429;28;20030;-80
2023/01/16 04:01:40;;;;;;;11.10;6.45;;;;;;;;;;5040228;28;20113;-79
2023/01/16 04:04:08;;;;;;;12.18;6.18;;;;;;;;;;5036164;28;20096;-79
2023/01/16 04:06:52;;;;;;;11.40;6.50;;;;;;;;;;5022363;28;20022;-80
2023/01/16 04:09:22;;;;;;;13.05;6.68;;;;;;;;;;5040209;28;20397;-80
2023/01/16 04:11:50;;;;;;;11.63;5.75;;;;;;;;;;5040586;28;20041;-80
2023/01/16 04:14:18;;;;;;;11.27;7.20;;;;;;;;;;5040043;28;20028;-80
2023/01/16 04:16:44;;;;;;;15.82;7.60;;;;;;;;;;5030272;28;20069;-80
2023/01/16 04:19:12;;;;;;;15.23;7.75;;;;;;;;;;5020312;28;20030;-80
2023/01/16 04:21:42;;;;;;;22.30;9.40;;;;;;;;;;5022079;28;20021;-79
2023/01/16 04:24:08;;;;;;;14.35;8.50;;;;;;;;;;5034134;28;20045;-79
2023/01/16 04:26:34;;;;;;;15.45;8.88;;;;;;;;;;5040866;28;20033;-79
2023/01/16 04:29:00;;;;;;;18.48;8.52;;;;;;;;;;5041771;28;20032;-79
2023/01/16 04:31:28;;;;;;;15.75;7.88;;;;;;;;;;5035608;28;20025;-79
2023/01/16 04:33:54;;;;;;;12.40;7.25;;;;;;;;;;5041152;28;20388;-79
2023/01/16 04:36:20;;;;;;;14.38;8.57;;;;;;;;;;5041471;28;20107;-79
2023/01/16 04:38:52;;;;;;;18.38;9.07;;;;;;;;;;5040956;28;20038;-79
2023/01/16 04:41:35;;;;;;;15.23;8.48;;;;;;;;;;5041907;28;20027;-79
2023/01/16 04:44:02;;;;;;;15.80;7.43;;;;;;;;;;5022980;28;20479;-79
2023/01/16 04:46:28;;;;;;;16.73;8.40;;;;;;;;;;5040841;28;20036;-79
2023/01/16 04:48:54;;;;;;;16.45;8.50;;;;;;;;;;5040407;28;20083;-79
2023/01/16 04:51:20;;;;;;;17.75;8.75;;;;;;;;;;5024283;28;20100;-79
2023/01/16 04:53:46;;;;;;;17.92;8.88;;;;;;;;;;5041297;28;20083;-79
2023/01/16 04:56:12;;;;;;;18.05;7.93;;;;;;;;;;5040783;28;20033;-79
2023/01/16 04:58:38;;;;;;;21.38;8.43;;;;;;;;;;5040744;28;20025;-79
2023/01/16 05:01:04;;;;;;;14.70;7.60;;;;;;;;;;5039777;28;20472;-79
2023/01/16 05:03:30;;;;;;;15.38;8.07;;;;;;;;;;5039940;28;20041;-79
2023/01/16 05:05:56;;;;;;;13.77;7.75;;;;;;;;;;5040043;28;20028;-79
2023/01/16 05:08:25;;;;;;;14.10;8.85;;;;;;;;;;5038194;28;20057;-79
2023/01/16 05:10:51;;;;;;;15.93;8.70;;;;;;;;;;5037140;28;20049;-79
2023/01/16 05:13:17;;;;;;;16.00;7.43;;;;;;;;;;5027952;28;20075;-79
2023/01/16 05:15:44;;;;;;;16.65;9.25;;;;;;;;;;5019162;28;20104;-79
2023/01/16 05:18:11;;;;;;;16.30;8.02;;;;;;;;;;5019574;28;20026;-79
2023/01/16 05:20:56;;;;;;;17.58;8.43;;;;;;;;;;5023022;28;20016;-79
2023/01/16 05:23:24;;;;;;;14.80;8.25;;;;;;;;;;5038652;28;20030;-79
2023/01/16 05:25:50;;;;;;;17.38;8.00;;;;;;;;;;5020304;28;20469;-79
2023/01/16 05:28:16;;;;;;;14.95;8.82;;;;;;;;;;5036471;28;20559;-79
2023/01/16 05:30:42;;;;;;;14.02;8.38;;;;;;;;;;5037942;28;20021;-79
2023/01/16 05:33:08;;;;;;;15.43;8.88;;;;;;;;;;5036995;28;20034;-79
2023/01/16 05:35:34;;;;;;;15.27;8.48;;;;;;;;;;5035317;28;20029;-79
2023/01/16 05:38:00;;;;;;;22.13;10.07;;;;;;;;;;5036160;28;20392;-79
2023/01/16 05:40:26;;;;;;;22.65;9.25;;;;;;;;;;5035975;28;20092;-79
2023/01/16 05:42:52;;;;;;;17.63;9.63;;;;;;;;;;5035694;28;20029;-79
2023/01/16 05:45:18;;;;;;;16.80;9.40;;;;;;;;;;5035122;28;20095;-79
2023/01/16 05:47:52;;;;;;;18.02;9.23;;;;;;;;;;5016313;28;20473;-79
2023/01/16 05:50:19;;;;;;;16.73;9.20;;;;;;;;;;5023163;28;20365;-79
2023/01/16 05:52:45;;;;;;;18.55;9.05;;;;;;;;;;5034717;28;20527;-79
2023/01/16 05:55:11;;;;;;;19.00;9.48;;;;;;;;;;5034940;28;20057;-79
2023/01/16 05:57:37;;;;;;;19.73;10.07;;;;;;;;;;5034895;28;20449;-79
2023/01/16 06:00:03;;;;;;;18.27;8.52;;;;;;;;;;5036048;28;20045;-79
2023/01/16 06:02:29;;;;;;;19.60;10.55;;;;;;;;;;5034166;28;20029;-79
2023/01/16 06:04:56;;;;;;;18.55;9.13;;;;;;;;;;5034495;28;20052;-79
2023/01/16 06:07:22;;;;;;;15.48;7.72;;;;;;;;;;5034878;28;20477;-79
2023/01/16 06:09:48;;;;;;;15.32;8.15;;;;;;;;;;5034649;28;20065;-79
2023/01/16 06:12:15;;;;;;;14.95;8.15;;;;;;;;;;5021354;28;20026;-79
2023/01/16 06:14:41;;;;;;;14.32;8.02;;;;;;;;;;5016780;28;20427;-79
2023/01/16 06:17:07;;;;;;;17.13;8.52;;;;;;;;;;5034431;28;20480;-79
2023/01/16 06:19:33;;;;;;;14.93;8.18;;;;;;;;;;5032923;28;20033;-79
2023/01/16 06:21:59;;;;;;;15.23;8.15;;;;;;;;;;5017963;28;20102;-79
2023/01/16 06:24:25;;;;;;;15.45;7.90;;;;;;;;;;5034194;28;20038;-79
2023/01/16 06:26:51;;;;;;;16.33;7.70;;;;;;;;;;5034625;28;20026;-79
2023/01/16 06:29:17;;;;;;;13.93;7.35;;;;;;;;;;5033908;28;20026;-79
2023/01/16 06:31:43;;;;;;;12.63;7.22;;;;;;;;;;5033737;28;20091;-79
2023/01/16 06:34:09;;;;;;;12.93;6.88;;;;;;;;;;5030474;28;20132;-79
2023/01/16 06:36:35;;;;;;;14.23;7.30;;;;;;;;;;5014207;28;20473;-78
2023/01/16 06:39:01;;;;;;;12.40;7.60;;;;;;;;;;5024401;28;20040;-78
2023/01/16 06:41:27;;;;;;;16.05;7.50;;;;;;;;;;5013945;28;20105;-78
2023/01/16 06:43:53;;;;;;;14.98;6.70;;;;;;;;;;5014343;28;20082;-78
2023/01/16 06:46:19;;;;;;;11.90;6.88;;;;;;;;;;5019739;28;20469;-78
2023/01/16 06:49:00;;;;;;;17.20;8.20;;;;;;;;;;5034027;28;20032;-79
2023/01/16 06:51:26;;;;;;;13.20;7.40;;;;;;;;;;5016276;28;20029;-79
2023/01/16 06:53:52;;;;;;;17.20;7.88;;;;;;;;;;5034683;28;20029;-79
2023/01/16 06:56:19;;;;;;;18.10;7.47;;;;;;;;;;5034924;28;20027;-79
2023/01/16 06:58:45;;;;;;;12.23;6.80;;;;;;;;;;5018432;28;20096;-79
2023/01/16 07:01:11;;;;;;;12.25;7.13;;;;;;;;;;5033936;28;20477;-79
2023/01/16 07:03:37;;;;;;;15.45;8.07;;;;;;;;;;5025764;28;20044;-79
2023/01/16 07:06:03;;;;;;;14.55;6.82;;;;;;;;;;5023154;28;20030;-79
2023/01/16 07:08:29;;;;;;;15.57;7.10;;;;;;;;;;5027909;28;20132;-80
2023/01/16 07:10:59;;;;;;;14.65;6.95;;;;;;;;;;5015985;28;20507;-80
2023/01/16 07:13:28;;;;;;;15.03;6.07;;;;;;;;;;5034035;28;20516;-80
2023/01/16 07:24:11;;;;;;;7.60;4.90;;;;;;;;;;5033433;28;20106;-80
2023/01/16 07:26:38;;;;;;;13.07;6.07;;;;;;;;;;5034239;28;20036;-80
2023/01/16 07:29:04;;;;;;;10.10;5.07;;;;;;;;;;5033585;28;20032;-79
2023/01/16 07:34:45;;;;;;;9.52;5.63;;;;;;;;;;5036969;28;20056;-79
2023/01/16 07:37:11;;;;;;;13.98;5.70;;;;;;;;;;5036914;28;20555;-79
2023/01/16 07:39:37;;;;;;;9.43;4.30;;;;;;;;;;5037205;28;20095;-79
2023/01/16 07:42:04;;;;;;;12.50;4.72;;;;;;;;;;5036670;28;20026;-80
2023/01/16 07:44:30;;;;;;;11.15;5.00;;;;;;;;;;5031942;28;20034;-80
2023/01/16 07:46:56;;;;;;;10.88;4.97;;;;;;;;;;5016869;28;20490;-79
2023/01/16 07:49:22;;;;;;;9.38;5.00;;;;;;;;;;5017006;28;20033;-79
2023/01/16 07:51:48;;;;;;;9.02;4.15;;;;;;;;;;5023753;28;20022;-79
2023/01/16 07:54:14;;;;;;;9.75;4.25;;;;;;;;;;5036254;28;20048;-79
2023/01/16 07:56:40;;;;;;;9.85;3.28;;;;;;;;;;5036474;28;20029;-79
2023/01/16 07:59:06;;;;;;;9.35;5.07;;;;;;;;;;5036800;28;20064;-79
2023/01/16 08:01:33;;;;;;;10.70;4.43;;;;;;;;;;5037661;28;20444;-79
2023/01/16 08:03:59;;;;;;;14.20;5.60;;;;;;;;;;5040368;28;20045;-80
2023/01/16 08:06:25;;;;;;;9.00;3.83;;;;;;;;;;5045065;28;20049;-80
2023/01/16 08:08:51;;;;;;;7.13;3.42;;;;;;;;;;5015839;28;20084;-79
2023/01/16 08:11:35;;;;;;;7.18;3.58;;;;;;;;;;5018595;28;20874;-79
2023/01/16 08:14:02;;;;;;;9.43;3.60;;;;;;;;;;5019225;28;20036;-80
2023/01/16 08:16:35;;;;;;;8.93;3.80;;;;;;;;;;5016629;28;20025;-80
2023/01/16 08:19:01;;;;;;;8.50;3.65;;;;;;;;;;5009613;28;20041;-80
2023/01/16 08:21:27;;;;;;;10.77;4.15;;;;;;;;;;5011435;28;20061;-80
2023/01/16 08:23:53;;;;;;;7.63;3.00;;;;;;;;;;5016946;28;20054;-80
2023/01/16 08:26:19;;;;;;;6.72;3.28;;;;;;;;;;5000556;28;20026;-80
2023/01/16 08:28:45;;;;;;;9.93;3.63;;;;;;;;;;5015938;28;20076;-81
2023/01/16 08:31:13;;;;;;;6.15;3.10;;;;;;;;;;5016700;28;20026;-81
2023/01/16 08:33:39;;;;;;;10.15;3.17;;;;;;;;;;5015982;28;20416;-80
2023/01/16 08:36:06;;;;;;;8.13;3.10;;;;;;;;;;5015553;28;20030;-81
2023/01/16 08:38:32;;;;;;;6.32;2.97;;;;;;;;;;5004764;28;20034;-81
2023/01/16 08:40:59;;;;;;;7.88;3.17;;;;;;;;;;4995707;28;20084;-80
